EZS76XR EBBR-LSGG
Flight info
| Callsign | EZS76XR |
|---|---|
| Flight time | 1h 4m |
| Altitude | 31000 |
| Route | ROUSY DCT GTQ DCT POGOL DCT LASAT DCT MOROK Z24 AKITO |
| Aircraft | A320/M-SDE3FGHIRWY/LB1 |
Departure
| Time | 2026-05-05 13:58 |
|---|---|
| Airport | Brussels Airport (EBBR) |
Arrival
| Time | 2026-05-05 15:02 |
|---|---|
| Airport | Geneva International Airport (LSGG) |
| Time | Latitude | Longitude | Altitude | Speed | Heading |
|---|---|---|---|---|---|
| 2026-05-05 13:19 | 50.90159 | 4.47689 | 120 ft | 0 kts | 155° |
| 2026-05-05 13:25 | 50.90160 | 4.47689 | 121 ft | 0 kts | 155° |
| 2026-05-05 13:30 | 50.90160 | 4.47688 | 121 ft | 0 kts | 155° |
| 2026-05-05 13:46 | 50.90172 | 4.47680 | 117 ft | 4 kts | 153° |
| 2026-05-05 13:46 | 50.90195 | 4.47659 | 116 ft | 4 kts | 143° |
| 2026-05-05 13:46 | 50.90214 | 4.47630 | 116 ft | 4 kts | 119° |
| 2026-05-05 13:47 | 50.90218 | 4.47598 | 116 ft | 2 kts | 65° |
| 2026-05-05 13:47 | 50.90216 | 4.47590 | 116 ft | 2 kts | 65° |
| 2026-05-05 13:49 | 50.90217 | 4.47592 | 116 ft | 2 kts | 65° |
| 2026-05-05 13:50 | 50.90235 | 4.47655 | 119 ft | 10 kts | 66° |
| 2026-05-05 13:50 | 50.90271 | 4.47783 | 119 ft | 16 kts | 65° |
| 2026-05-05 13:50 | 50.90325 | 4.47970 | 119 ft | 18 kts | 66° |
| 2026-05-05 13:50 | 50.90424 | 4.48053 | 121 ft | 17 kts | 35° |
| 2026-05-05 13:51 | 50.90477 | 4.48231 | 119 ft | 19 kts | 63° |
| 2026-05-05 13:51 | 50.90541 | 4.48440 | 119 ft | 22 kts | 65° |
| 2026-05-05 13:51 | 50.90609 | 4.48678 | 120 ft | 26 kts | 65° |
| 2026-05-05 13:51 | 50.90689 | 4.48951 | 117 ft | 28 kts | 65° |
| 2026-05-05 13:52 | 50.90772 | 4.49242 | 120 ft | 29 kts | 65° |
| 2026-05-05 13:52 | 50.90854 | 4.49521 | 122 ft | 27 kts | 65° |
| 2026-05-05 13:52 | 50.90882 | 4.49751 | 120 ft | 13 kts | 145° |
| 2026-05-05 13:52 | 50.90804 | 4.49732 | 122 ft | 16 kts | 192° |
| 2026-05-05 13:53 | 50.90664 | 4.49676 | 122 ft | 26 kts | 194° |
| 2026-05-05 13:53 | 50.90457 | 4.49593 | 123 ft | 33 kts | 193° |
| 2026-05-05 13:53 | 50.90235 | 4.49504 | 127 ft | 33 kts | 195° |
| 2026-05-05 13:53 | 50.90010 | 4.49410 | 131 ft | 34 kts | 194° |
| 2026-05-05 13:54 | 50.89788 | 4.49322 | 144 ft | 31 kts | 194° |
| 2026-05-05 13:54 | 50.89603 | 4.49223 | 155 ft | 25 kts | 213° |
| 2026-05-05 13:54 | 50.89457 | 4.49145 | 162 ft | 20 kts | 195° |
| 2026-05-05 13:54 | 50.89333 | 4.49048 | 166 ft | 23 kts | 239° |
| 2026-05-05 13:55 | 50.89265 | 4.48763 | 164 ft | 31 kts | 250° |
| 2026-05-05 13:55 | 50.89189 | 4.48434 | 164 ft | 32 kts | 249° |
| 2026-05-05 13:55 | 50.89111 | 4.48100 | 164 ft | 30 kts | 250° |
| 2026-05-05 13:55 | 50.89037 | 4.47906 | 166 ft | 17 kts | 196° |
| 2026-05-05 13:56 | 50.88959 | 4.47936 | 175 ft | 7 kts | 141° |
| 2026-05-05 13:56 | 50.88939 | 4.48006 | 178 ft | 7 kts | 103° |
| 2026-05-05 13:56 | 50.88929 | 4.48129 | 179 ft | 12 kts | 88° |
| 2026-05-05 13:56 | 50.88950 | 4.48241 | 179 ft | 8 kts | 70° |
| 2026-05-05 13:57 | 50.88956 | 4.48265 | 178 ft | 1 kts | 70° |
| 2026-05-05 13:57 | 50.88957 | 4.48273 | 178 ft | 0 kts | 70° |
| 2026-05-05 13:57 | 50.88962 | 4.48294 | 178 ft | 12 kts | 70° |
| 2026-05-05 13:57 | 50.89084 | 4.48812 | 178 ft | 85 kts | 70° |
| 2026-05-05 13:58 | 50.89350 | 4.49968 | 177 ft | 139 kts | 70° |
| 2026-05-05 13:58 | 50.89714 | 4.51593 | 419 ft | 163 kts | 69° |
| 2026-05-05 13:58 | 50.90131 | 4.53257 | 1135 ft | 162 kts | 62° |
| 2026-05-05 13:58 | 50.90661 | 4.54919 | 1565 ft | 181 kts | 60° |
| 2026-05-05 13:59 | 50.92018 | 4.58978 | 2306 ft | 230 kts | 60° |
| 2026-05-05 13:59 | 50.92812 | 4.61296 | 2887 ft | 246 kts | 59° |
| 2026-05-05 14:00 | 50.94267 | 4.66308 | 4554 ft | 258 kts | 71° |
| 2026-05-05 14:00 | 50.94615 | 4.68147 | 5204 ft | 258 kts | 73° |
| 2026-05-05 14:00 | 50.95267 | 4.71817 | 6286 ft | 265 kts | 75° |
| 2026-05-05 14:00 | 50.95463 | 4.74740 | 7057 ft | 270 kts | 93° |
| 2026-05-05 14:01 | 50.95048 | 4.77660 | 7856 ft | 275 kts | 112° |
| 2026-05-05 14:01 | 50.94049 | 4.80255 | 8649 ft | 280 kts | 131° |
| 2026-05-05 14:01 | 50.92590 | 4.82347 | 9458 ft | 285 kts | 140° |
| 2026-05-05 14:01 | 50.91051 | 4.84365 | 10169 ft | 292 kts | 139° |
| 2026-05-05 14:02 | 50.89351 | 4.86289 | 10394 ft | 317 kts | 149° |
| 2026-05-05 14:02 | 50.87267 | 4.87739 | 10707 ft | 337 kts | 161° |
| 2026-05-05 14:02 | 50.84941 | 4.88465 | 11327 ft | 345 kts | 172° |
| 2026-05-05 14:02 | 50.82537 | 4.88834 | 12041 ft | 349 kts | 173° |
| 2026-05-05 14:03 | 50.80109 | 4.89216 | 12751 ft | 352 kts | 172° |
| 2026-05-05 14:03 | 50.77657 | 4.89604 | 13448 ft | 356 kts | 172° |
| 2026-05-05 14:03 | 50.75185 | 4.89993 | 14158 ft | 357 kts | 173° |
| 2026-05-05 14:03 | 50.72708 | 4.90380 | 14822 ft | 359 kts | 173° |
| 2026-05-05 14:04 | 50.70214 | 4.90776 | 15446 ft | 361 kts | 172° |
| 2026-05-05 14:04 | 50.67789 | 4.91620 | 16040 ft | 363 kts | 160° |
| 2026-05-05 14:04 | 50.65487 | 4.93274 | 16628 ft | 366 kts | 148° |
| 2026-05-05 14:04 | 50.63442 | 4.95679 | 17225 ft | 369 kts | 136° |
| 2026-05-05 14:05 | 50.61610 | 4.98520 | 17844 ft | 371 kts | 135° |
| 2026-05-05 14:05 | 50.59768 | 5.01391 | 18412 ft | 374 kts | 135° |
| 2026-05-05 14:05 | 50.57916 | 5.04276 | 18971 ft | 375 kts | 136° |
| 2026-05-05 14:05 | 50.56050 | 5.07170 | 19476 ft | 379 kts | 136° |
| 2026-05-05 14:06 | 50.54163 | 5.10086 | 20016 ft | 381 kts | 136° |
| 2026-05-05 14:06 | 50.52288 | 5.12973 | 20562 ft | 383 kts | 137° |
| 2026-05-05 14:06 | 50.50381 | 5.15902 | 21125 ft | 385 kts | 137° |
| 2026-05-05 14:06 | 50.48462 | 5.18846 | 21642 ft | 387 kts | 137° |
| 2026-05-05 14:07 | 50.46528 | 5.21815 | 22143 ft | 390 kts | 137° |
| 2026-05-05 14:07 | 50.44585 | 5.24802 | 22633 ft | 393 kts | 137° |
| 2026-05-05 14:07 | 50.42623 | 5.27816 | 23105 ft | 396 kts | 137° |
| 2026-05-05 14:07 | 50.40648 | 5.30844 | 23545 ft | 399 kts | 137° |
| 2026-05-05 14:08 | 50.38655 | 5.33894 | 23928 ft | 401 kts | 137° |
| 2026-05-05 14:08 | 50.36654 | 5.36954 | 24322 ft | 403 kts | 137° |
| 2026-05-05 14:08 | 50.34669 | 5.39987 | 24696 ft | 405 kts | 137° |
| 2026-05-05 14:08 | 50.32649 | 5.43067 | 25077 ft | 407 kts | 137° |
| 2026-05-05 14:09 | 50.30614 | 5.46161 | 25439 ft | 409 kts | 137° |
| 2026-05-05 14:09 | 50.28571 | 5.49266 | 25794 ft | 410 kts | 137° |
| 2026-05-05 14:09 | 50.26523 | 5.52379 | 26176 ft | 411 kts | 137° |
| 2026-05-05 14:09 | 50.24468 | 5.55503 | 26535 ft | 413 kts | 137° |
| 2026-05-05 14:10 | 50.22403 | 5.58636 | 26878 ft | 415 kts | 138° |
| 2026-05-05 14:10 | 50.20329 | 5.61774 | 27218 ft | 416 kts | 138° |
| 2026-05-05 14:10 | 50.18270 | 5.64884 | 27544 ft | 418 kts | 138° |
| 2026-05-05 14:10 | 50.16174 | 5.68043 | 27874 ft | 420 kts | 138° |
| 2026-05-05 14:11 | 50.14067 | 5.71212 | 28191 ft | 422 kts | 138° |
| 2026-05-05 14:11 | 50.11954 | 5.74394 | 28493 ft | 423 kts | 138° |
| 2026-05-05 14:11 | 50.09806 | 5.77538 | 28785 ft | 424 kts | 142° |
| 2026-05-05 14:11 | 50.07410 | 5.80202 | 29071 ft | 423 kts | 151° |
| 2026-05-05 14:12 | 50.04765 | 5.82216 | 29353 ft | 424 kts | 160° |
| 2026-05-05 14:12 | 50.01973 | 5.83693 | 29640 ft | 425 kts | 162° |
| 2026-05-05 14:12 | 49.99192 | 5.85119 | 29913 ft | 427 kts | 162° |
| 2026-05-05 14:12 | 49.96375 | 5.86565 | 30144 ft | 428 kts | 162° |
| 2026-05-05 14:13 | 49.93548 | 5.88021 | 30368 ft | 429 kts | 162° |
| 2026-05-05 14:13 | 49.90714 | 5.89483 | 30586 ft | 429 kts | 161° |
| 2026-05-05 14:13 | 49.87878 | 5.90949 | 30760 ft | 430 kts | 162° |
| 2026-05-05 14:13 | 49.85051 | 5.92410 | 30829 ft | 424 kts | 162° |
| 2026-05-05 14:14 | 49.79524 | 5.95253 | 30838 ft | 416 kts | 161° |
| 2026-05-05 14:14 | 49.74079 | 5.98042 | 30838 ft | 415 kts | 161° |
| 2026-05-05 14:15 | 49.68596 | 6.00843 | 30837 ft | 415 kts | 161° |
| 2026-05-05 14:15 | 49.63118 | 6.03634 | 30837 ft | 415 kts | 161° |
| 2026-05-05 14:16 | 49.57634 | 6.06428 | 30854 ft | 415 kts | 161° |
| 2026-05-05 14:16 | 49.52181 | 6.09193 | 30846 ft | 415 kts | 161° |
| 2026-05-05 14:17 | 49.46891 | 6.12650 | 30838 ft | 414 kts | 148° |
| 2026-05-05 14:17 | 49.42340 | 6.18072 | 30836 ft | 414 kts | 141° |
| 2026-05-05 14:18 | 49.37859 | 6.23638 | 30832 ft | 415 kts | 142° |
| 2026-05-05 14:18 | 49.33389 | 6.29150 | 30823 ft | 416 kts | 142° |
| 2026-05-05 14:19 | 49.28877 | 6.34706 | 30820 ft | 416 kts | 142° |
| 2026-05-05 14:19 | 49.24352 | 6.40259 | 30828 ft | 417 kts | 142° |
| 2026-05-05 14:20 | 49.19818 | 6.45815 | 30836 ft | 418 kts | 142° |
| 2026-05-05 14:20 | 49.15278 | 6.51366 | 30839 ft | 418 kts | 142° |
| 2026-05-05 14:21 | 49.10771 | 6.56863 | 30849 ft | 417 kts | 141° |
| 2026-05-05 14:21 | 49.06230 | 6.62394 | 30826 ft | 418 kts | 142° |
| 2026-05-05 14:22 | 49.01610 | 6.67756 | 30824 ft | 417 kts | 149° |
| 2026-05-05 14:22 | 48.96226 | 6.70942 | 30824 ft | 418 kts | 169° |
| 2026-05-05 14:23 | 48.90460 | 6.71294 | 30825 ft | 419 kts | 180° |
| 2026-05-05 14:23 | 48.84616 | 6.71047 | 30831 ft | 421 kts | 180° |
| 2026-05-05 14:24 | 48.78756 | 6.70816 | 30824 ft | 422 kts | 180° |
| 2026-05-05 14:24 | 48.72886 | 6.70604 | 30824 ft | 422 kts | 180° |
| 2026-05-05 14:25 | 48.67050 | 6.70378 | 30829 ft | 423 kts | 180° |
| 2026-05-05 14:25 | 48.61163 | 6.70146 | 30834 ft | 424 kts | 180° |
| 2026-05-05 14:26 | 48.55263 | 6.69909 | 30839 ft | 424 kts | 180° |
| 2026-05-05 14:26 | 48.49365 | 6.69680 | 30841 ft | 424 kts | 180° |
| 2026-05-05 14:27 | 48.43520 | 6.69462 | 30843 ft | 423 kts | 180° |
| 2026-05-05 14:27 | 48.37637 | 6.69246 | 30845 ft | 423 kts | 180° |
| 2026-05-05 14:28 | 48.31760 | 6.69040 | 30845 ft | 422 kts | 180° |
| 2026-05-05 14:28 | 48.25884 | 6.68817 | 30845 ft | 422 kts | 180° |
| 2026-05-05 14:29 | 48.20049 | 6.68575 | 30865 ft | 422 kts | 181° |
| 2026-05-05 14:29 | 48.14187 | 6.68339 | 30867 ft | 421 kts | 181° |
| 2026-05-05 14:30 | 48.08337 | 6.68118 | 30864 ft | 420 kts | 181° |
| 2026-05-05 14:30 | 48.02492 | 6.67894 | 30873 ft | 420 kts | 181° |
| 2026-05-05 14:31 | 47.96650 | 6.67670 | 30867 ft | 420 kts | 180° |
| 2026-05-05 14:31 | 47.90852 | 6.67457 | 30866 ft | 420 kts | 181° |
| 2026-05-05 14:32 | 47.85015 | 6.67234 | 30868 ft | 419 kts | 181° |
| 2026-05-05 14:32 | 47.79178 | 6.67013 | 30877 ft | 419 kts | 181° |
| 2026-05-05 14:33 | 47.73345 | 6.66787 | 30869 ft | 420 kts | 181° |
| 2026-05-05 14:33 | 47.67546 | 6.66567 | 30871 ft | 420 kts | 181° |
| 2026-05-05 14:34 | 47.61709 | 6.66351 | 30875 ft | 420 kts | 181° |
| 2026-05-05 14:34 | 47.55878 | 6.66136 | 30883 ft | 418 kts | 181° |
| 2026-05-05 14:35 | 47.50060 | 6.65922 | 30885 ft | 418 kts | 181° |
| 2026-05-05 14:35 | 47.44293 | 6.65703 | 30884 ft | 417 kts | 181° |
| 2026-05-05 14:36 | 47.38486 | 6.65494 | 30883 ft | 417 kts | 182° |
| 2026-05-05 14:36 | 47.32692 | 6.65291 | 30866 ft | 416 kts | 182° |
| 2026-05-05 14:37 | 47.26908 | 6.65070 | 30876 ft | 416 kts | 184° |
| 2026-05-05 14:37 | 47.21319 | 6.63202 | 30879 ft | 413 kts | 204° |
| 2026-05-05 14:38 | 47.16567 | 6.58607 | 30903 ft | 414 kts | 221° |
| 2026-05-05 14:38 | 47.12276 | 6.52947 | 30880 ft | 415 kts | 221° |
| 2026-05-05 14:39 | 47.07962 | 6.47303 | 30554 ft | 416 kts | 220° |
| 2026-05-05 14:39 | 47.05797 | 6.44487 | 30302 ft | 416 kts | 220° |
| 2026-05-05 14:39 | 47.03628 | 6.41665 | 30064 ft | 417 kts | 220° |
| 2026-05-05 14:40 | 47.01484 | 6.38875 | 29798 ft | 418 kts | 220° |
| 2026-05-05 14:40 | 46.99312 | 6.36047 | 29510 ft | 418 kts | 221° |
| 2026-05-05 14:40 | 46.97141 | 6.33224 | 29222 ft | 417 kts | 221° |
| 2026-05-05 14:40 | 46.94969 | 6.30406 | 28946 ft | 417 kts | 221° |
| 2026-05-05 14:41 | 46.92797 | 6.27588 | 28672 ft | 418 kts | 220° |
| 2026-05-05 14:41 | 46.90619 | 6.24760 | 28391 ft | 419 kts | 220° |
| 2026-05-05 14:41 | 46.88445 | 6.21937 | 27931 ft | 417 kts | 220° |
| 2026-05-05 14:41 | 46.86292 | 6.19133 | 27246 ft | 412 kts | 220° |
| 2026-05-05 14:42 | 46.84165 | 6.16356 | 26598 ft | 408 kts | 220° |
| 2026-05-05 14:42 | 46.82057 | 6.13604 | 25955 ft | 404 kts | 220° |
| 2026-05-05 14:42 | 46.79999 | 6.10918 | 25357 ft | 401 kts | 221° |
| 2026-05-05 14:42 | 46.77923 | 6.08216 | 24708 ft | 399 kts | 220° |
| 2026-05-05 14:43 | 46.75855 | 6.05535 | 24084 ft | 396 kts | 220° |
| 2026-05-05 14:43 | 46.73798 | 6.02879 | 23462 ft | 394 kts | 220° |
| 2026-05-05 14:43 | 46.71751 | 6.00240 | 22792 ft | 391 kts | 220° |
| 2026-05-05 14:43 | 46.69724 | 5.97630 | 22212 ft | 386 kts | 220° |
| 2026-05-05 14:44 | 46.67722 | 5.95049 | 21668 ft | 382 kts | 220° |
| 2026-05-05 14:44 | 46.65762 | 5.92518 | 21333 ft | 365 kts | 220° |
| 2026-05-05 14:44 | 46.64532 | 5.90932 | 21244 ft | 349 kts | 220° |
| 2026-05-05 14:44 | 46.62236 | 5.87983 | 21068 ft | 317 kts | 220° |
| 2026-05-05 14:45 | 46.60631 | 5.85949 | 20936 ft | 295 kts | 216° |
| 2026-05-05 14:45 | 46.58911 | 5.84522 | 20692 ft | 279 kts | 200° |
| 2026-05-05 14:45 | 46.57042 | 5.83938 | 20318 ft | 274 kts | 184° |
| 2026-05-05 14:45 | 46.55134 | 5.84172 | 20069 ft | 278 kts | 168° |
| 2026-05-05 14:46 | 46.53915 | 5.84778 | 19893 ft | 281 kts | 158° |
| 2026-05-05 14:46 | 46.52242 | 5.86287 | 19524 ft | 286 kts | 149° |
| 2026-05-05 14:46 | 46.50599 | 5.87952 | 19073 ft | 290 kts | 149° |
| 2026-05-05 14:46 | 46.48429 | 5.90141 | 18763 ft | 282 kts | 149° |
| 2026-05-05 14:47 | 46.46832 | 5.91747 | 18312 ft | 278 kts | 150° |
| 2026-05-05 14:47 | 46.45246 | 5.93338 | 17743 ft | 276 kts | 150° |
| 2026-05-05 14:47 | 46.44203 | 5.94383 | 17358 ft | 275 kts | 150° |
| 2026-05-05 14:47 | 46.42633 | 5.95955 | 16796 ft | 274 kts | 150° |
| 2026-05-05 14:48 | 46.41073 | 5.97517 | 16343 ft | 272 kts | 150° |
| 2026-05-05 14:48 | 46.39519 | 5.99071 | 15926 ft | 270 kts | 150° |
| 2026-05-05 14:48 | 46.38037 | 6.00738 | 15487 ft | 273 kts | 137° |
| 2026-05-05 14:48 | 46.36988 | 6.03051 | 15035 ft | 281 kts | 116° |
| 2026-05-05 14:49 | 46.36613 | 6.06806 | 14439 ft | 297 kts | 85° |
| 2026-05-05 14:49 | 46.37280 | 6.09671 | 14105 ft | 304 kts | 59° |
| 2026-05-05 14:49 | 46.38150 | 6.11285 | 14018 ft | 301 kts | 46° |
| 2026-05-05 14:49 | 46.39612 | 6.13434 | 13750 ft | 298 kts | 46° |
| 2026-05-05 14:50 | 46.41043 | 6.15533 | 13222 ft | 296 kts | 46° |
| 2026-05-05 14:50 | 46.42481 | 6.17645 | 12715 ft | 293 kts | 46° |
| 2026-05-05 14:50 | 46.43910 | 6.19742 | 12206 ft | 292 kts | 46° |
| 2026-05-05 14:50 | 46.45330 | 6.21828 | 11727 ft | 289 kts | 46° |
| 2026-05-05 14:51 | 46.46736 | 6.23904 | 11232 ft | 287 kts | 46° |
| 2026-05-05 14:51 | 46.48132 | 6.25970 | 10732 ft | 285 kts | 47° |
| 2026-05-05 14:51 | 46.49520 | 6.28015 | 10241 ft | 283 kts | 47° |
| 2026-05-05 14:51 | 46.50877 | 6.30018 | 9740 ft | 281 kts | 47° |
| 2026-05-05 14:52 | 46.52230 | 6.32030 | 9443 ft | 278 kts | 47° |
| 2026-05-05 14:52 | 46.53543 | 6.34102 | 9354 ft | 277 kts | 58° |
| 2026-05-05 14:52 | 46.54333 | 6.36528 | 9279 ft | 257 kts | 82° |
| 2026-05-05 14:52 | 46.54437 | 6.39015 | 9195 ft | 242 kts | 105° |
| 2026-05-05 14:53 | 46.53945 | 6.41280 | 9134 ft | 231 kts | 126° |
| 2026-05-05 14:53 | 46.52992 | 6.43084 | 9039 ft | 222 kts | 144° |
| 2026-05-05 14:53 | 46.51745 | 6.44298 | 8887 ft | 210 kts | 162° |
| 2026-05-05 14:53 | 46.50385 | 6.44864 | 8761 ft | 200 kts | 178° |
| 2026-05-05 14:54 | 46.49016 | 6.44887 | 8628 ft | 195 kts | 185° |
| 2026-05-05 14:54 | 46.47683 | 6.44646 | 8416 ft | 192 kts | 198° |
| 2026-05-05 14:54 | 46.46471 | 6.43909 | 8083 ft | 193 kts | 212° |
| 2026-05-05 14:54 | 46.45402 | 6.42671 | 7587 ft | 203 kts | 224° |
| 2026-05-05 14:55 | 46.44381 | 6.41160 | 6952 ft | 216 kts | 224° |
| 2026-05-05 14:55 | 46.43311 | 6.39615 | 6455 ft | 214 kts | 223° |
| 2026-05-05 14:55 | 46.42283 | 6.38154 | 6253 ft | 199 kts | 224° |
| 2026-05-05 14:55 | 46.41345 | 6.36779 | 5968 ft | 184 kts | 224° |
| 2026-05-05 14:56 | 46.40884 | 6.36097 | 5828 ft | 172 kts | 224° |
| 2026-05-05 14:56 | 46.40663 | 6.35759 | 5761 ft | 166 kts | 225° |
| 2026-05-05 14:56 | 46.39909 | 6.34637 | 5567 ft | 150 kts | 224° |
| 2026-05-05 14:57 | 46.39198 | 6.33594 | 5384 ft | 143 kts | 224° |
| 2026-05-05 14:57 | 46.38502 | 6.32568 | 5191 ft | 143 kts | 225° |
| 2026-05-05 14:57 | 46.37808 | 6.31543 | 5008 ft | 142 kts | 224° |
| 2026-05-05 14:57 | 46.37121 | 6.30527 | 4815 ft | 141 kts | 224° |
| 2026-05-05 14:58 | 46.36436 | 6.29515 | 4634 ft | 141 kts | 224° |
| 2026-05-05 14:58 | 46.35752 | 6.28504 | 4431 ft | 141 kts | 224° |
| 2026-05-05 14:58 | 46.35065 | 6.27488 | 4246 ft | 142 kts | 224° |
| 2026-05-05 14:58 | 46.34370 | 6.26462 | 4050 ft | 144 kts | 225° |
| 2026-05-05 14:59 | 46.33683 | 6.25446 | 3861 ft | 144 kts | 224° |
| 2026-05-05 14:59 | 46.32994 | 6.24428 | 3658 ft | 142 kts | 225° |
| 2026-05-05 14:59 | 46.32297 | 6.23403 | 3456 ft | 142 kts | 225° |
| 2026-05-05 14:59 | 46.31608 | 6.22380 | 3271 ft | 143 kts | 226° |
| 2026-05-05 15:00 | 46.30904 | 6.21345 | 3107 ft | 146 kts | 225° |
| 2026-05-05 15:00 | 46.30431 | 6.20651 | 2998 ft | 146 kts | 226° |
| 2026-05-05 15:00 | 46.29483 | 6.19243 | 2729 ft | 145 kts | 225° |
| 2026-05-05 15:00 | 46.28803 | 6.18234 | 2494 ft | 142 kts | 225° |
| 2026-05-05 15:01 | 46.28114 | 6.17218 | 2335 ft | 140 kts | 224° |
| 2026-05-05 15:01 | 46.27433 | 6.16213 | 2133 ft | 138 kts | 223° |
| 2026-05-05 15:01 | 46.26761 | 6.15223 | 1894 ft | 139 kts | 225° |
| 2026-05-05 15:01 | 46.26075 | 6.14223 | 1728 ft | 143 kts | 224° |
| 2026-05-05 15:02 | 46.25394 | 6.13215 | 1540 ft | 138 kts | 224° |
| 2026-05-05 15:02 | 46.24734 | 6.12258 | 1376 ft | 125 kts | 223° |
| 2026-05-05 15:02 | 46.24219 | 6.11505 | 1374 ft | 82 kts | 225° |
| 2026-05-05 15:02 | 46.23942 | 6.11095 | 1377 ft | 32 kts | 225° |
| 2026-05-05 15:03 | 46.23848 | 6.10959 | 1378 ft | 16 kts | 225° |
| 2026-05-05 15:03 | 46.23769 | 6.10852 | 1379 ft | 15 kts | 217° |
| 2026-05-05 15:03 | 46.23676 | 6.10770 | 1381 ft | 16 kts | 205° |
| 2026-05-05 15:03 | 46.23571 | 6.10716 | 1383 ft | 16 kts | 197° |
| 2026-05-05 15:04 | 46.23484 | 6.10711 | 1390 ft | 10 kts | 134° |
| 2026-05-05 15:04 | 46.23503 | 6.10783 | 1389 ft | 9 kts | 48° |
| 2026-05-05 15:04 | 46.23546 | 6.10846 | 1391 ft | 9 kts | 45° |
| 2026-05-05 15:04 | 46.23587 | 6.10907 | 1388 ft | 8 kts | 45° |
| 2026-05-05 15:05 | 46.23668 | 6.11038 | 1389 ft | 9 kts | 73° |
| 2026-05-05 15:05 | 46.23646 | 6.11100 | 1396 ft | 7 kts | 133° |
| 2026-05-05 15:05 | 46.23603 | 6.11159 | 1395 ft | 9 kts | 145° |
| 2026-05-05 15:06 | 46.23558 | 6.11195 | 1396 ft | 6 kts | 137° |
| 2026-05-05 15:06 | 46.23535 | 6.11229 | 1392 ft | 4 kts | 135° |
| 2026-05-05 15:06 | 46.23521 | 6.11248 | 1396 ft | 2 kts | 137° |
| 2026-05-05 15:06 | 46.23514 | 6.11257 | 1398 ft | 2 kts | 136° |
| 2026-05-05 15:07 | 46.23511 | 6.11262 | 1392 ft | 0 kts | 136° |
| 2026-05-05 15:10 | 46.23511 | 6.11261 | 1392 ft | 0 kts | 136° |